Time;durP1;ratioP1;P1;durP2;ratioP2;P2;SDS_P1;SDS_P2;PMS_P1;PMS_P2;Temp;Humidity;BMP_temperature;BMP_pressure;BME280_temperature;BME280_humidity;BME280_pressure;Samples;Min_cycle;Max_cycle;Signal;HPM_P1;HPM_P2
2023/01/04 00:00:00;;;;;;;1.0;1.0;;;;;;;8.2;100.0;101740;;;;
2023/01/04 00:01:01;;;;;;;1.0;1.0;;;;;;;8.2;100.0;101740;;;;
2023/01/04 00:02:00;;;;;;;1.0;1.0;;;;;;;8.1;100.0;101730;;;;
2023/01/04 00:03:00;;;;;;;1.0;1.0;;;;;;;8.1;100.0;101730;;;;
2023/01/04 00:04:00;;;;;;;1.0;1.0;;;;;;;8.1;100.0;101740;;;;
2023/01/04 00:05:00;;;;;;;1.0;1.0;;;;;;;8.1;100.0;101740;;;;
2023/01/04 00:06:02;;;;;;;1.0;1.0;;;;;;;8.1;100.0;101720;;;;
2023/01/04 00:07:00;;;;;;;1.0;1.0;;;;;;;8.1;100.0;101720;;;;
2023/01/04 00:08:00;;;;;;;1.0;1.0;;;;;;;8.1;100.0;101730;;;;
2023/01/04 00:09:00;;;;;;;1.0;1.0;;;;;;;8.1;100.0;101730;;;;
2023/01/04 00:10:00;;;;;;;1.0;1.0;;;;;;;8.1;100.0;101730;;;;
2023/01/04 00:11:01;;;;;;;1.0;1.0;;;;;;;8.1;100.0;101730;;;;
2023/01/04 00:12:00;;;;;;;1.0;1.0;;;;;;;8.1;100.0;101720;;;;
2023/01/04 00:13:00;;;;;;;1.0;1.0;;;;;;;8.1;100.0;101720;;;;
2023/01/04 00:14:00;;;;;;;1.0;1.0;;;;;;;8.1;100.0;101720;;;;
2023/01/04 00:15:00;;;;;;;1.0;1.0;;;;;;;8.1;100.0;101720;;;;
2023/01/04 00:16:08;;;;;;;1.0;1.0;;;;;;;8.1;100.0;101710;;;;
2023/01/04 00:17:00;;;;;;;1.0;1.0;;;;;;;8.1;100.0;101710;;;;
2023/01/04 00:18:00;;;;;;;1.0;1.0;;;;;;;8.1;100.0;101710;;;;
2023/01/04 00:19:00;;;;;;;1.0;1.0;;;;;;;8.1;100.0;101710;;;;
2023/01/04 00:20:00;;;;;;;1.0;1.0;;;;;;;8.1;100.0;101710;;;;
2023/01/04 00:21:10;;;;;;;1.0;1.0;;;;;;;8.1;100.0;101710;;;;
2023/01/04 00:22:00;;;;;;;1.0;1.0;;;;;;;8.1;100.0;101710;;;;
2023/01/04 00:23:00;;;;;;;1.0;1.0;;;;;;;8.1;100.0;101710;;;;
2023/01/04 00:24:00;;;;;;;1.0;1.0;;;;;;;8.1;100.0;101700;;;;
2023/01/04 00:25:00;;;;;;;1.1;1.1;;;;;;;8.1;100.0;101700;;;;
2023/01/04 00:26:00;;;;;;;1.1;1.1;;;;;;;8.1;100.0;101700;;;;
2023/01/04 00:27:00;;;;;;;1.1;1.1;;;;;;;8.1;100.0;101700;;;;
2023/01/04 00:28:00;;;;;;;1.1;1.1;;;;;;;8.1;100.0;101700;;;;
2023/01/04 00:29:02;;;;;;;1.1;1.1;;;;;;;8.1;100.0;101700;;;;
2023/01/04 00:30:00;;;;;;;1.1;1.1;;;;;;;8.1;100.0;101690;;;;
2023/01/04 00:31:01;;;;;;;1.1;1.1;;;;;;;8.1;100.0;101690;;;;
2023/01/04 00:32:00;;;;;;;1.1;1.1;;;;;;;8.1;100.0;101690;;;;
2023/01/04 00:33:00;;;;;;;1.1;1.1;;;;;;;8.1;100.0;101690;;;;
2023/01/04 00:34:01;;;;;;;1.1;1.1;;;;;;;8.1;100.0;101700;;;;
2023/01/04 00:35:00;;;;;;;1.1;1.1;;;;;;;8.1;100.0;101700;;;;
2023/01/04 00:36:01;;;;;;;1.1;1.1;;;;;;;8.1;100.0;101680;;;;
2023/01/04 00:37:00;;;;;;;1.1;1.1;;;;;;;8.1;100.0;101680;;;;
2023/01/04 00:38:00;;;;;;;1.1;1.1;;;;;;;8.1;100.0;101680;;;;
2023/01/04 00:40:00;;;;;;;1.1;1.1;;;;;;;8.0;100.0;101680;;;;
2023/01/04 00:41:00;;;;;;;1.1;1.1;;;;;;;8.0;100.0;101680;;;;
2023/01/04 00:42:04;;;;;;;1.1;1.1;;;;;;;8.0;100.0;101670;;;;
2023/01/04 00:43:00;;;;;;;1.1;1.1;;;;;;;8.0;100.0;101670;;;;
2023/01/04 00:44:02;;;;;;;1.1;1.1;;;;;;;8.1;100.0;101660;;;;
2023/01/04 00:45:00;;;;;;;1.1;1.1;;;;;;;8.1;100.0;101660;;;;
2023/01/04 00:46:00;;;;;;;1.1;1.1;;;;;;;8.1;100.0;101660;;;;
2023/01/04 00:47:01;;;;;;;1.1;1.1;;;;;;;8.1;100.0;101660;;;;
2023/01/04 00:48:00;;;;;;;1.1;1.1;;;;;;;8.0;100.0;101660;;;;
2023/01/04 00:49:01;;;;;;;1.1;1.1;;;;;;;8.0;100.0;101660;;;;
2023/01/04 00:50:01;;;;;;;1.1;1.1;;;;;;;8.1;100.0;101640;;;;
2023/01/04 00:51:00;;;;;;;1.1;1.1;;;;;;;8.1;100.0;101640;;;;
2023/01/04 00:52:00;;;;;;;1.1;1.1;;;;;;;8.1;100.0;101650;;;;
2023/01/04 00:53:00;;;;;;;1.1;1.1;;;;;;;8.1;100.0;101650;;;;
2023/01/04 00:54:01;;;;;;;1.1;1.1;;;;;;;8.1;100.0;101640;;;;
2023/01/04 00:55:00;;;;;;;1.1;1.1;;;;;;;8.1;100.0;101640;;;;
2023/01/04 00:56:00;;;;;;;1.1;1.1;;;;;;;8.1;100.0;101650;;;;
2023/01/04 00:57:00;;;;;;;1.1;1.1;;;;;;;8.1;100.0;101650;;;;
2023/01/04 00:58:00;;;;;;;1.1;1.1;;;;;;;8.1;100.0;101640;;;;
2023/01/04 00:59:01;;;;;;;1.1;1.1;;;;;;;8.1;100.0;101640;;;;
2023/01/04 01:00:00;;;;;;;1.1;1.1;;;;;;;8.1;100.0;101630;;;;
2023/01/04 01:01:05;;;;;;;1.1;1.1;;;;;;;8.1;100.0;101630;;;;
2023/01/04 01:02:00;;;;;;;1.1;1.1;;;;;;;8.1;100.0;101640;;;;
2023/01/04 01:03:01;;;;;;;1.1;1.1;;;;;;;8.1;100.0;101640;;;;
2023/01/04 01:04:01;;;;;;;1.1;1.1;;;;;;;8.1;100.0;101630;;;;
2023/01/04 01:05:00;;;;;;;1.1;1.1;;;;;;;8.1;100.0;101630;;;;
2023/01/04 01:06:02;;;;;;;1.1;1.1;;;;;;;8.2;100.0;101630;;;;
2023/01/04 01:07:00;;;;;;;1.1;1.1;;;;;;;8.2;100.0;101630;;;;
2023/01/04 01:08:23;;;;;;;1.1;1.1;;;;;;;8.1;100.0;101630;;;;
2023/01/04 01:09:00;;;;;;;1.1;1.1;;;;;;;8.1;100.0;101630;;;;
2023/01/04 01:10:00;;;;;;;1.1;1.1;;;;;;;8.1;100.0;101610;;;;
2023/01/04 01:11:04;;;;;;;1.1;1.1;;;;;;;8.1;100.0;101610;;;;
2023/01/04 01:12:00;;;;;;;1.1;1.1;;;;;;;8.1;100.0;101620;;;;
2023/01/04 01:13:00;;;;;;;1.1;1.1;;;;;;;8.1;100.0;101620;;;;
2023/01/04 01:14:00;;;;;;;1.1;1.1;;;;;;;8.2;100.0;101610;;;;
2023/01/04 01:15:01;;;;;;;1.1;1.1;;;;;;;8.2;100.0;101610;;;;
2023/01/04 01:16:01;;;;;;;1.1;1.1;;;;;;;8.1;100.0;101610;;;;
2023/01/04 01:17:00;;;;;;;1.1;1.1;;;;;;;8.1;100.0;101610;;;;
2023/01/04 01:18:00;;;;;;;1.1;1.1;;;;;;;8.2;100.0;101610;;;;
2023/01/04 01:19:00;;;;;;;1.1;1.1;;;;;;;8.2;100.0;101610;;;;
2023/01/04 01:20:00;;;;;;;1.1;1.1;;;;;;;8.2;100.0;101610;;;;
2023/01/04 01:21:04;;;;;;;1.1;1.1;;;;;;;8.2;100.0;101610;;;;
2023/01/04 01:22:00;;;;;;;1.1;1.1;;;;;;;8.1;100.0;101600;;;;
2023/01/04 01:23:00;;;;;;;1.1;1.1;;;;;;;8.1;100.0;101600;;;;
2023/01/04 01:24:00;;;;;;;1.1;1.1;;;;;;;8.1;100.0;101590;;;;
2023/01/04 01:25:00;;;;;;;1.1;1.1;;;;;;;8.1;100.0;101590;;;;
2023/01/04 01:26:01;;;;;;;1.1;1.1;;;;;;;8.2;100.0;101600;;;;
2023/01/04 01:27:00;;;;;;;1.1;1.1;;;;;;;8.2;100.0;101600;;;;
2023/01/04 01:28:00;;;;;;;1.1;1.1;;;;;;;8.3;100.0;101600;;;;
2023/01/04 01:29:00;;;;;;;1.1;1.1;;;;;;;8.3;100.0;101600;;;;
2023/01/04 01:30:00;;;;;;;1.1;1.1;;;;;;;8.2;100.0;101600;;;;
2023/01/04 01:31:09;;;;;;;1.1;1.1;;;;;;;8.2;100.0;101600;;;;
2023/01/04 01:32:00;;;;;;;1.1;1.1;;;;;;;8.3;100.0;101600;;;;
2023/01/04 01:33:00;;;;;;;1.1;1.1;;;;;;;8.3;100.0;101600;;;;
2023/01/04 01:34:00;;;;;;;1.1;1.1;;;;;;;8.4;100.0;101600;;;;
2023/01/04 01:35:00;;;;;;;1.1;1.1;;;;;;;8.4;100.0;101600;;;;
2023/01/04 01:36:01;;;;;;;1.1;1.1;;;;;;;8.3;100.0;101600;;;;
2023/01/04 01:37:01;;;;;;;1.1;1.1;;;;;;;8.3;100.0;101600;;;;
2023/01/04 01:38:01;;;;;;;1.1;1.1;;;;;;;8.3;100.0;101590;;;;
2023/01/04 01:39:00;;;;;;;1.1;1.1;;;;;;;8.3;100.0;101590;;;;
2023/01/04 01:40:00;;;;;;;1.1;1.1;;;;;;;8.3;100.0;101600;;;;
2023/01/04 01:41:00;;;;;;;1.1;1.1;;;;;;;8.3;100.0;101600;;;;
2023/01/04 01:42:00;;;;;;;1.1;1.1;;;;;;;8.3;100.0;101600;;;;
2023/01/04 01:43:00;;;;;;;1.1;1.1;;;;;;;8.3;100.0;101600;;;;
2023/01/04 01:44:05;;;;;;;1.1;1.1;;;;;;;8.3;100.0;101580;;;;
2023/01/04 01:45:02;;;;;;;0.9;0.9;;;;;;;8.3;100.0;101580;;;;
2023/01/04 01:46:00;;;;;;;0.9;0.9;;;;;;;8.4;100.0;101570;;;;
2023/01/04 01:47:00;;;;;;;0.9;0.9;;;;;;;8.4;100.0;101570;;;;
2023/01/04 01:48:03;;;;;;;0.9;0.9;;;;;;;8.4;100.0;101580;;;;
2023/01/04 01:49:04;;;;;;;0.9;0.9;;;;;;;8.4;100.0;101580;;;;
2023/01/04 01:50:01;;;;;;;0.9;0.9;;;;;;;8.3;100.0;101580;;;;
2023/01/04 01:51:01;;;;;;;0.9;0.9;;;;;;;8.3;100.0;101580;;;;
2023/01/04 01:52:03;;;;;;;0.9;0.9;;;;;;;8.3;100.0;101570;;;;
2023/01/04 01:53:01;;;;;;;0.9;0.9;;;;;;;8.3;100.0;101570;;;;
2023/01/04 01:54:03;;;;;;;0.9;0.9;;;;;;;8.3;100.0;101570;;;;
2023/01/04 01:55:03;;;;;;;0.9;0.9;;;;;;;8.3;100.0;101570;;;;
2023/01/04 01:56:03;;;;;;;0.9;0.9;;;;;;;8.4;100.0;101570;;;;
2023/01/04 01:57:02;;;;;;;0.9;0.9;;;;;;;8.4;100.0;101570;;;;
2023/01/04 01:58:01;;;;;;;0.9;0.9;;;;;;;8.4;100.0;101570;;;;
2023/01/04 01:59:01;;;;;;;0.9;0.9;;;;;;;8.4;100.0;101570;;;;
2023/01/04 02:00:03;;;;;;;0.9;0.9;;;;;;;8.4;100.0;101580;;;;
2023/01/04 02:01:00;;;;;;;0.9;0.9;;;;;;;8.4;100.0;101580;;;;
2023/01/04 02:02:01;;;;;;;0.9;0.9;;;;;;;8.4;100.0;101570;;;;
2023/01/04 02:03:09;;;;;;;0.9;0.9;;;;;;;8.4;100.0;101570;;;;
2023/01/04 02:04:01;;;;;;;0.9;0.9;;;;;;;8.4;100.0;101570;;;;
2023/01/04 02:05:01;;;;;;;1.0;1.0;;;;;;;8.4;100.0;101570;;;;
2023/01/04 02:06:02;;;;;;;1.0;1.0;;;;;;;8.4;100.0;101570;;;;
2023/01/04 02:07:01;;;;;;;1.0;1.0;;;;;;;8.4;100.0;101570;;;;
2023/01/04 02:08:01;;;;;;;1.0;1.0;;;;;;;8.4;100.0;101570;;;;
2023/01/04 02:09:01;;;;;;;1.0;1.0;;;;;;;8.4;100.0;101570;;;;
2023/01/04 02:10:00;;;;;;;1.0;1.0;;;;;;;8.5;100.0;101570;;;;
2023/01/04 02:11:00;;;;;;;1.0;1.0;;;;;;;8.5;100.0;101570;;;;
2023/01/04 02:12:00;;;;;;;1.0;1.0;;;;;;;8.5;100.0;101580;;;;
2023/01/04 02:13:04;;;;;;;1.0;1.0;;;;;;;8.5;100.0;101580;;;;
2023/01/04 02:15:00;;;;;;;1.0;1.0;;;;;;;8.5;100.0;101570;;;;
2023/01/04 02:16:10;;;;;;;1.0;1.0;;;;;;;8.4;100.0;101570;;;;
2023/01/04 02:17:03;;;;;;;1.0;1.0;;;;;;;8.4;100.0;101570;;;;
2023/01/04 02:18:06;;;;;;;1.0;1.0;;;;;;;8.5;100.0;101560;;;;
2023/01/04 02:19:06;;;;;;;1.0;1.0;;;;;;;8.5;100.0;101560;;;;
2023/01/04 02:20:10;;;;;;;1.0;1.0;;;;;;;8.5;100.0;101580;;;;
2023/01/04 02:21:05;;;;;;;1.0;1.0;;;;;;;8.5;100.0;101580;;;;
2023/01/04 02:22:01;;;;;;;1.0;1.0;;;;;;;8.6;100.0;101570;;;;
2023/01/04 02:23:03;;;;;;;1.0;1.0;;;;;;;8.6;100.0;101570;;;;
2023/01/04 02:24:10;;;;;;;1.0;1.0;;;;;;;8.6;100.0;101570;;;;
2023/01/04 02:25:10;;;;;;;1.0;1.0;;;;;;;8.6;100.0;101570;;;;
2023/01/04 02:26:10;;;;;;;1.0;1.0;;;;;;;8.6;100.0;101560;;;;
2023/01/04 02:27:03;;;;;;;1.0;1.0;;;;;;;8.6;100.0;101560;;;;
2023/01/04 02:28:10;;;;;;;1.0;1.0;;;;;;;8.6;100.0;101560;;;;
2023/01/04 02:29:00;;;;;;;1.0;1.0;;;;;;;8.6;100.0;101560;;;;
2023/01/04 02:30:09;;;;;;;1.0;1.0;;;;;;;8.5;100.0;101550;;;;
2023/01/04 02:31:10;;;;;;;1.0;1.0;;;;;;;8.5;100.0;101550;;;;
2023/01/04 02:32:02;;;;;;;1.0;1.0;;;;;;;8.5;100.0;101560;;;;
2023/01/04 02:33:03;;;;;;;1.0;1.0;;;;;;;8.5;100.0;101560;;;;
2023/01/04 02:34:10;;;;;;;1.0;1.0;;;;;;;8.5;100.0;101560;;;;
2023/01/04 02:35:10;;;;;;;1.0;1.0;;;;;;;8.5;100.0;101560;;;;
2023/01/04 02:36:03;;;;;;;1.0;1.0;;;;;;;8.6;100.0;101550;;;;
2023/01/04 02:37:10;;;;;;;1.0;1.0;;;;;;;8.6;100.0;101550;;;;
2023/01/04 02:38:06;;;;;;;1.0;1.0;;;;;;;8.6;100.0;101540;;;;
2023/01/04 02:39:03;;;;;;;1.0;1.0;;;;;;;8.6;100.0;101540;;;;
2023/01/04 02:40:03;;;;;;;1.0;1.0;;;;;;;8.6;100.0;101540;;;;
2023/01/04 02:41:10;;;;;;;1.0;1.0;;;;;;;8.6;100.0;101540;;;;
2023/01/04 02:42:10;;;;;;;1.0;1.0;;;;;;;8.6;100.0;101540;;;;
2023/01/04 02:45:03;;;;;;;0.9;0.9;;;;;;;8.6;100.0;101530;;;;
2023/01/04 02:46:05;;;;;;;0.9;0.9;;;;;;;8.6;100.0;101520;;;;
2023/01/04 02:47:03;;;;;;;0.9;0.9;;;;;;;8.6;100.0;101520;;;;
2023/01/04 02:51:00;;;;;;;0.9;0.9;;;;;;;8.7;100.0;101520;;;;
2023/01/04 02:52:00;;;;;;;0.9;0.9;;;;;;;8.6;100.0;101530;;;;
2023/01/04 02:53:03;;;;;;;0.9;0.9;;;;;;;8.6;100.0;101530;;;;
2023/01/04 02:54:10;;;;;;;0.9;0.9;;;;;;;8.6;100.0;101520;;;;
2023/01/04 02:55:03;;;;;;;0.9;0.9;;;;;;;8.6;100.0;101520;;;;
2023/01/04 02:56:10;;;;;;;0.9;0.9;;;;;;;8.7;100.0;101510;;;;
2023/01/04 02:57:10;;;;;;;0.9;0.9;;;;;;;8.7;100.0;101510;;;;
2023/01/04 02:58:06;;;;;;;0.9;0.9;;;;;;;8.7;100.0;101510;;;;
2023/01/04 02:59:03;;;;;;;0.9;0.9;;;;;;;8.7;100.0;101510;;;;
2023/01/04 03:00:01;;;;;;;0.9;0.9;;;;;;;8.7;100.0;101500;;;;
2023/01/04 03:07:07;;;;;;;1.1;1.1;;;;;;;8.8;100.0;101490;;;;
2023/01/04 03:08:08;;;;;;;1.1;1.1;;;;;;;8.8;100.0;101500;;;;
2023/01/04 03:09:06;;;;;;;1.1;1.1;;;;;;;8.8;100.0;101500;;;;
2023/01/04 03:10:06;;;;;;;1.1;1.1;;;;;;;8.8;100.0;101500;;;;
2023/01/04 03:11:04;;;;;;;1.1;1.1;;;;;;;8.8;100.0;101500;;;;
2023/01/04 03:13:06;;;;;;;1.1;1.1;;;;;;;8.9;100.0;101490;;;;
2023/01/04 03:14:17;;;;;;;1.1;1.1;;;;;;;8.9;100.0;101490;;;;
2023/01/04 03:15:07;;;;;;;1.1;1.1;;;;;;;8.9;100.0;101490;;;;
2023/01/04 03:16:03;;;;;;;1.1;1.1;;;;;;;8.9;100.0;101490;;;;
2023/01/04 03:17:03;;;;;;;1.1;1.1;;;;;;;8.9;100.0;101490;;;;
2023/01/04 03:18:10;;;;;;;1.1;1.1;;;;;;;8.9;100.0;101490;;;;
2023/01/04 03:19:08;;;;;;;1.1;1.1;;;;;;;8.9;100.0;101490;;;;
2023/01/04 03:20:00;;;;;;;1.1;1.1;;;;;;;8.9;100.0;101480;;;;
2023/01/04 03:21:02;;;;;;;1.1;1.1;;;;;;;8.9;100.0;101480;;;;
2023/01/04 03:22:01;;;;;;;1.1;1.1;;;;;;;8.9;100.0;101480;;;;
2023/01/04 03:36:10;;;;;;;1.1;1.1;;;;;;;8.9;100.0;101470;;;;
2023/01/04 03:37:08;;;;;;;1.1;1.1;;;;;;;8.9;100.0;101470;;;;
2023/01/04 03:49:08;;;;;;;0.8;0.8;;;;;;;9.1;100.0;101450;;;;
2023/01/04 03:50:05;;;;;;;0.8;0.8;;;;;;;9.1;100.0;101440;;;;
2023/01/04 03:51:07;;;;;;;0.8;0.8;;;;;;;9.1;100.0;101440;;;;
2023/01/04 03:52:02;;;;;;;0.8;0.8;;;;;;;9.0;100.0;101430;;;;
2023/01/04 03:53:01;;;;;;;0.8;0.8;;;;;;;9.0;100.0;101430;;;;
2023/01/04 03:54:07;;;;;;;0.8;0.8;;;;;;;9.1;100.0;101430;;;;
2023/01/04 03:55:02;;;;;;;0.8;0.8;;;;;;;9.1;100.0;101430;;;;
2023/01/04 03:56:01;;;;;;;0.8;0.8;;;;;;;9.1;100.0;101430;;;;
2023/01/04 03:57:01;;;;;;;0.8;0.8;;;;;;;9.1;100.0;101430;;;;
2023/01/04 03:58:00;;;;;;;0.8;0.8;;;;;;;9.1;100.0;101430;;;;
2023/01/04 03:59:00;;;;;;;0.8;0.8;;;;;;;9.1;100.0;101430;;;;
2023/01/04 04:00:05;;;;;;;0.8;0.8;;;;;;;9.1;100.0;101420;;;;
2023/01/04 04:01:02;;;;;;;0.8;0.8;;;;;;;9.1;100.0;101420;;;;
2023/01/04 04:02:01;;;;;;;0.8;0.8;;;;;;;9.2;100.0;101430;;;;
2023/01/04 04:03:06;;;;;;;0.8;0.8;;;;;;;9.2;100.0;101430;;;;
2023/01/04 04:09:00;;;;;;;1.0;1.0;;;;;;;9.2;100.0;101420;;;;
2023/01/04 04:10:00;;;;;;;1.0;1.0;;;;;;;9.2;100.0;101420;;;;
2023/01/04 04:12:00;;;;;;;1.0;1.0;;;;;;;9.2;100.0;101430;;;;
2023/01/04 04:13:00;;;;;;;1.0;1.0;;;;;;;9.2;100.0;101430;;;;
2023/01/04 04:14:00;;;;;;;1.0;1.0;;;;;;;9.2;100.0;101420;;;;
2023/01/04 04:15:00;;;;;;;1.0;1.0;;;;;;;9.2;100.0;101420;;;;
2023/01/04 04:16:00;;;;;;;1.0;1.0;;;;;;;9.3;100.0;101420;;;;
2023/01/04 04:17:00;;;;;;;1.0;1.0;;;;;;;9.3;100.0;101420;;;;
2023/01/04 04:18:00;;;;;;;1.0;1.0;;;;;;;9.3;100.0;101420;;;;
2023/01/04 04:19:08;;;;;;;1.0;1.0;;;;;;;9.3;100.0;101420;;;;
2023/01/04 04:20:00;;;;;;;1.0;1.0;;;;;;;9.3;100.0;101420;;;;
2023/01/04 04:21:00;;;;;;;1.0;1.0;;;;;;;9.3;100.0;101420;;;;
2023/01/04 04:22:00;;;;;;;1.0;1.0;;;;;;;9.3;100.0;101410;;;;
2023/01/04 04:23:00;;;;;;;1.0;1.0;;;;;;;9.3;100.0;101410;;;;
2023/01/04 04:24:00;;;;;;;0.9;0.9;;;;;;;9.3;100.0;101410;;;;
2023/01/04 04:25:00;;;;;;;0.9;0.9;;;;;;;9.3;100.0;101410;;;;
2023/01/04 04:26:00;;;;;;;0.9;0.9;;;;;;;9.2;100.0;101420;;;;
2023/01/04 04:27:00;;;;;;;0.9;0.9;;;;;;;9.2;100.0;101420;;;;
2023/01/04 04:28:00;;;;;;;0.9;0.9;;;;;;;9.2;100.0;101410;;;;
2023/01/04 04:29:00;;;;;;;0.9;0.9;;;;;;;9.2;100.0;101410;;;;
2023/01/04 04:30:01;;;;;;;0.9;0.9;;;;;;;9.3;100.0;101410;;;;
2023/01/04 04:31:00;;;;;;;0.9;0.9;;;;;;;9.3;100.0;101410;;;;
2023/01/04 04:32:00;;;;;;;0.9;0.9;;;;;;;9.3;100.0;101400;;;;
2023/01/04 04:33:00;;;;;;;0.9;0.9;;;;;;;9.3;100.0;101400;;;;
2023/01/04 04:34:00;;;;;;;0.9;0.9;;;;;;;9.4;100.0;101410;;;;
2023/01/04 04:35:00;;;;;;;0.9;0.9;;;;;;;9.4;100.0;101410;;;;
2023/01/04 04:36:00;;;;;;;0.9;0.9;;;;;;;9.4;100.0;101400;;;;
2023/01/04 04:37:00;;;;;;;0.9;0.9;;;;;;;9.4;100.0;101400;;;;
2023/01/04 04:38:00;;;;;;;0.9;0.9;;;;;;;9.4;100.0;101400;;;;
2023/01/04 04:39:00;;;;;;;0.9;0.9;;;;;;;9.4;100.0;101400;;;;
2023/01/04 04:40:00;;;;;;;0.9;0.9;;;;;;;9.4;100.0;101400;;;;
2023/01/04 04:42:00;;;;;;;0.9;0.9;;;;;;;9.4;100.0;101400;;;;
2023/01/04 04:43:00;;;;;;;0.9;0.9;;;;;;;9.4;100.0;101400;;;;
2023/01/04 04:44:00;;;;;;;0.8;0.8;;;;;;;9.5;100.0;101400;;;;
2023/01/04 04:45:00;;;;;;;0.8;0.8;;;;;;;9.5;100.0;101400;;;;
2023/01/04 04:46:00;;;;;;;0.8;0.8;;;;;;;9.5;100.0;101390;;;;
2023/01/04 04:47:00;;;;;;;0.8;0.8;;;;;;;9.5;100.0;101390;;;;
2023/01/04 04:48:00;;;;;;;0.8;0.8;;;;;;;9.4;100.0;101380;;;;
2023/01/04 04:49:00;;;;;;;0.8;0.8;;;;;;;9.4;100.0;101380;;;;
2023/01/04 04:50:01;;;;;;;0.8;0.8;;;;;;;9.5;100.0;101380;;;;
2023/01/04 04:51:00;;;;;;;0.8;0.8;;;;;;;9.5;100.0;101380;;;;
2023/01/04 04:52:00;;;;;;;0.8;0.8;;;;;;;9.4;100.0;101380;;;;
2023/01/04 04:53:00;;;;;;;0.8;0.8;;;;;;;9.4;100.0;101380;;;;
2023/01/04 04:54:00;;;;;;;0.8;0.8;;;;;;;9.4;100.0;101380;;;;
2023/01/04 04:55:00;;;;;;;0.8;0.8;;;;;;;9.4;100.0;101380;;;;
2023/01/04 04:56:00;;;;;;;0.8;0.8;;;;;;;9.5;100.0;101380;;;;
2023/01/04 04:57:00;;;;;;;0.8;0.8;;;;;;;9.5;100.0;101380;;;;
2023/01/04 04:58:00;;;;;;;0.8;0.8;;;;;;;9.5;100.0;101380;;;;
2023/01/04 04:59:00;;;;;;;0.8;0.8;;;;;;;9.5;100.0;101380;;;;
2023/01/04 05:00:00;;;;;;;0.8;0.8;;;;;;;9.6;100.0;101390;;;;
2023/01/04 05:01:00;;;;;;;0.8;0.8;;;;;;;9.6;100.0;101390;;;;
2023/01/04 05:02:00;;;;;;;0.8;0.8;;;;;;;9.6;100.0;101390;;;;
2023/01/04 05:03:01;;;;;;;0.8;0.8;;;;;;;9.6;100.0;101390;;;;
2023/01/04 05:04:00;;;;;;;0.9;0.9;;;;;;;9.6;100.0;101380;;;;
2023/01/04 05:05:00;;;;;;;0.9;0.9;;;;;;;9.6;100.0;101380;;;;
2023/01/04 05:06:01;;;;;;;0.9;0.9;;;;;;;9.6;100.0;101380;;;;
2023/01/04 05:07:00;;;;;;;0.9;0.9;;;;;;;9.6;100.0;101380;;;;
2023/01/04 05:08:00;;;;;;;0.9;0.9;;;;;;;9.5;100.0;101380;;;;
2023/01/04 05:09:00;;;;;;;0.9;0.9;;;;;;;9.5;100.0;101380;;;;
2023/01/04 05:10:00;;;;;;;0.9;0.9;;;;;;;9.6;100.0;101370;;;;
2023/01/04 05:11:03;;;;;;;0.9;0.9;;;;;;;9.6;100.0;101370;;;;
2023/01/04 05:13:00;;;;;;;0.9;0.9;;;;;;;9.6;100.0;101370;;;;
2023/01/04 05:14:00;;;;;;;0.9;0.9;;;;;;;9.6;100.0;101380;;;;
2023/01/04 05:15:01;;;;;;;0.9;0.9;;;;;;;9.6;100.0;101380;;;;
2023/01/04 05:16:01;;;;;;;0.9;0.9;;;;;;;9.6;100.0;101370;;;;
2023/01/04 05:17:00;;;;;;;0.9;0.9;;;;;;;9.6;100.0;101370;;;;
2023/01/04 05:18:00;;;;;;;0.9;0.9;;;;;;;9.6;100.0;101370;;;;
2023/01/04 05:19:00;;;;;;;0.9;0.9;;;;;;;9.6;100.0;101370;;;;
2023/01/04 05:20:01;;;;;;;0.9;0.9;;;;;;;9.6;100.0;101360;;;;
2023/01/04 05:21:01;;;;;;;0.9;0.9;;;;;;;9.6;100.0;101360;;;;
2023/01/04 05:22:00;;;;;;;0.9;0.9;;;;;;;9.7;100.0;101350;;;;
2023/01/04 05:23:00;;;;;;;0.9;0.9;;;;;;;9.7;100.0;101350;;;;
2023/01/04 05:24:00;;;;;;;0.9;0.9;;;;;;;9.7;100.0;101350;;;;
2023/01/04 05:25:00;;;;;;;0.9;0.9;;;;;;;9.7;100.0;101350;;;;
2023/01/04 05:26:02;;;;;;;0.9;0.9;;;;;;;9.6;100.0;101360;;;;
2023/01/04 05:27:00;;;;;;;0.9;0.9;;;;;;;9.6;100.0;101360;;;;
2023/01/04 05:28:00;;;;;;;0.9;0.9;;;;;;;9.7;100.0;101350;;;;
2023/01/04 05:29:00;;;;;;;0.9;0.9;;;;;;;9.7;100.0;101350;;;;
2023/01/04 05:31:00;;;;;;;0.9;0.9;;;;;;;9.7;100.0;101350;;;;
2023/01/04 05:32:00;;;;;;;0.9;0.9;;;;;;;9.7;100.0;101340;;;;
2023/01/04 05:33:00;;;;;;;0.9;0.9;;;;;;;9.7;100.0;101340;;;;
2023/01/04 05:34:00;;;;;;;0.9;0.9;;;;;;;9.7;100.0;101350;;;;
2023/01/04 05:35:00;;;;;;;0.9;0.9;;;;;;;9.7;100.0;101350;;;;
2023/01/04 05:36:02;;;;;;;0.9;0.9;;;;;;;9.8;100.0;101340;;;;
2023/01/04 05:37:00;;;;;;;0.9;0.9;;;;;;;9.8;100.0;101340;;;;
2023/01/04 05:38:00;;;;;;;0.9;0.9;;;;;;;9.8;100.0;101330;;;;
2023/01/04 05:39:00;;;;;;;0.9;0.9;;;;;;;9.8;100.0;101330;;;;
2023/01/04 05:40:00;;;;;;;0.9;0.9;;;;;;;9.8;100.0;101330;;;;
2023/01/04 05:41:00;;;;;;;0.9;0.9;;;;;;;9.8;100.0;101330;;;;
2023/01/04 05:43:00;;;;;;;0.9;0.9;;;;;;;9.8;100.0;101330;;;;
2023/01/04 05:44:00;;;;;;;1.3;1.3;;;;;;;9.9;100.0;101320;;;;
2023/01/04 05:45:00;;;;;;;1.3;1.3;;;;;;;9.9;100.0;101320;;;;
2023/01/04 05:46:00;;;;;;;1.3;1.3;;;;;;;9.8;100.0;101320;;;;
2023/01/04 05:47:00;;;;;;;1.3;1.3;;;;;;;9.8;100.0;101320;;;;
2023/01/04 05:48:00;;;;;;;1.3;1.3;;;;;;;9.8;100.0;101320;;;;
2023/01/04 05:49:00;;;;;;;1.3;1.3;;;;;;;9.8;100.0;101320;;;;
2023/01/04 05:50:01;;;;;;;1.3;1.3;;;;;;;9.8;100.0;101330;;;;
2023/01/04 05:51:00;;;;;;;1.3;1.3;;;;;;;9.8;100.0;101330;;;;
2023/01/04 05:52:00;;;;;;;1.3;1.3;;;;;;;9.8;100.0;101310;;;;
2023/01/04 05:53:00;;;;;;;1.3;1.3;;;;;;;9.8;100.0;101310;;;;
2023/01/04 05:54:00;;;;;;;1.3;1.3;;;;;;;9.8;100.0;101310;;;;
2023/01/04 05:55:00;;;;;;;1.3;1.3;;;;;;;9.8;100.0;101310;;;;
2023/01/04 05:56:00;;;;;;;1.3;1.3;;;;;;;10.0;100.0;101320;;;;
2023/01/04 05:57:00;;;;;;;1.3;1.3;;;;;;;10.0;100.0;101320;;;;
2023/01/04 05:58:00;;;;;;;1.3;1.3;;;;;;;9.9;100.0;101310;;;;
2023/01/04 05:59:00;;;;;;;1.3;1.3;;;;;;;9.9;100.0;101310;;;;
2023/01/04 06:00:00;;;;;;;1.3;1.3;;;;;;;10.0;100.0;101310;;;;
2023/01/04 06:01:00;;;;;;;1.3;1.3;;;;;;;10.0;100.0;101310;;;;
2023/01/04 06:02:00;;;;;;;1.3;1.3;;;;;;;10.0;100.0;101320;;;;
2023/01/04 06:03:00;;;;;;;1.3;1.3;;;;;;;10.0;100.0;101320;;;;
2023/01/04 06:04:00;;;;;;;0.8;0.8;;;;;;;10.0;100.0;101310;;;;
2023/01/04 06:05:00;;;;;;;0.8;0.8;;;;;;;10.0;100.0;101310;;;;
2023/01/04 06:06:00;;;;;;;0.8;0.8;;;;;;;9.9;100.0;101310;;;;
2023/01/04 06:07:00;;;;;;;0.8;0.8;;;;;;;9.9;100.0;101310;;;;
2023/01/04 06:08:00;;;;;;;0.8;0.8;;;;;;;10.0;100.0;101310;;;;
2023/01/04 06:09:00;;;;;;;0.8;0.8;;;;;;;10.0;100.0;101310;;;;
2023/01/04 06:10:00;;;;;;;0.8;0.8;;;;;;;10.0;100.0;101310;;;;
2023/01/04 06:11:00;;;;;;;0.8;0.8;;;;;;;10.0;100.0;101310;;;;
2023/01/04 06:12:00;;;;;;;0.8;0.8;;;;;;;10.1;100.0;101300;;;;
2023/01/04 06:13:00;;;;;;;0.8;0.8;;;;;;;10.1;100.0;101300;;;;
2023/01/04 06:14:00;;;;;;;0.8;0.8;;;;;;;10.0;100.0;101300;;;;
2023/01/04 06:15:00;;;;;;;0.8;0.8;;;;;;;10.0;100.0;101300;;;;
2023/01/04 06:16:00;;;;;;;0.8;0.8;;;;;;;10.1;100.0;101300;;;;
2023/01/04 06:17:00;;;;;;;0.8;0.8;;;;;;;10.1;100.0;101300;;;;
2023/01/04 06:18:00;;;;;;;0.8;0.8;;;;;;;10.1;100.0;101300;;;;
2023/01/04 06:19:01;;;;;;;0.8;0.8;;;;;;;10.1;100.0;101300;;;;
2023/01/04 06:20:00;;;;;;;0.8;0.8;;;;;;;10.0;100.0;101300;;;;
2023/01/04 06:21:00;;;;;;;0.8;0.8;;;;;;;10.0;100.0;101300;;;;
2023/01/04 06:22:00;;;;;;;0.8;0.8;;;;;;;10.1;100.0;101310;;;;
2023/01/04 06:23:00;;;;;;;0.8;0.8;;;;;;;10.1;100.0;101310;;;;
2023/01/04 06:24:00;;;;;;;0.8;0.8;;;;;;;10.1;100.0;101310;;;;
2023/01/04 06:25:00;;;;;;;0.8;0.8;;;;;;;10.1;100.0;101310;;;;
2023/01/04 06:26:00;;;;;;;0.8;0.8;;;;;;;10.1;100.0;101310;;;;
2023/01/04 06:27:01;;;;;;;0.8;0.8;;;;;;;10.1;100.0;101310;;;;
2023/01/04 06:28:00;;;;;;;0.8;0.8;;;;;;;10.1;100.0;101300;;;;
2023/01/04 06:29:00;;;;;;;0.8;0.8;;;;;;;10.1;100.0;101300;;;;
2023/01/04 06:30:00;;;;;;;0.8;0.8;;;;;;;10.2;100.0;101300;;;;
2023/01/04 06:31:04;;;;;;;0.8;0.8;;;;;;;10.2;100.0;101300;;;;
2023/01/04 06:32:00;;;;;;;0.8;0.8;;;;;;;10.2;100.0;101300;;;;
2023/01/04 06:33:00;;;;;;;0.8;0.8;;;;;;;10.2;100.0;101300;;;;
2023/01/04 06:34:00;;;;;;;0.8;0.8;;;;;;;10.1;100.0;101290;;;;
2023/01/04 06:35:00;;;;;;;0.8;0.8;;;;;;;10.1;100.0;101290;;;;
2023/01/04 06:36:00;;;;;;;0.8;0.8;;;;;;;10.1;100.0;101290;;;;
2023/01/04 06:37:00;;;;;;;0.8;0.8;;;;;;;10.1;100.0;101290;;;;
2023/01/04 06:38:00;;;;;;;0.8;0.8;;;;;;;10.1;100.0;101300;;;;
2023/01/04 06:39:00;;;;;;;0.8;0.8;;;;;;;10.1;100.0;101300;;;;
2023/01/04 06:40:00;;;;;;;0.8;0.8;;;;;;;10.2;100.0;101300;;;;
2023/01/04 06:41:00;;;;;;;0.8;0.8;;;;;;;10.2;100.0;101300;;;;
2023/01/04 06:42:43;;;;;;;0.8;0.8;;;;;;;10.2;100.0;101300;;;;
2023/01/04 06:43:00;;;;;;;0.8;0.8;;;;;;;10.2;100.0;101300;;;;
2023/01/04 06:44:00;;;;;;;0.7;0.7;;;;;;;10.1;100.0;101300;;;;
2023/01/04 06:45:00;;;;;;;0.7;0.7;;;;;;;10.1;100.0;101300;;;;
2023/01/04 06:46:02;;;;;;;0.7;0.7;;;;;;;10.1;100.0;101310;;;;
2023/01/04 06:47:00;;;;;;;0.7;0.7;;;;;;;10.1;100.0;101310;;;;
2023/01/04 06:48:07;;;;;;;0.7;0.7;;;;;;;10.2;100.0;101320;;;;
2023/01/04 06:49:00;;;;;;;0.7;0.7;;;;;;;10.2;100.0;101320;;;;
2023/01/04 06:50:00;;;;;;;0.7;0.7;;;;;;;10.3;100.0;101310;;;;
2023/01/04 06:51:00;;;;;;;0.7;0.7;;;;;;;10.3;100.0;101310;;;;
2023/01/04 06:52:00;;;;;;;0.7;0.7;;;;;;;10.2;100.0;101310;;;;
2023/01/04 06:53:00;;;;;;;0.7;0.7;;;;;;;10.2;100.0;101310;;;;
2023/01/04 06:54:00;;;;;;;0.7;0.7;;;;;;;10.3;100.0;101300;;;;
2023/01/04 06:55:00;;;;;;;0.7;0.7;;;;;;;10.3;100.0;101300;;;;
2023/01/04 06:56:00;;;;;;;0.7;0.7;;;;;;;10.2;100.0;101310;;;;
2023/01/04 06:57:00;;;;;;;0.7;0.7;;;;;;;10.2;100.0;101310;;;;
2023/01/04 06:58:00;;;;;;;0.7;0.7;;;;;;;10.2;100.0;101300;;;;
2023/01/04 06:59:00;;;;;;;0.7;0.7;;;;;;;10.2;100.0;101300;;;;
2023/01/04 07:00:00;;;;;;;0.7;0.7;;;;;;;10.2;100.0;101320;;;;
2023/01/04 07:01:00;;;;;;;0.7;0.7;;;;;;;10.2;100.0;101320;;;;
2023/01/04 07:02:00;;;;;;;0.7;0.7;;;;;;;10.2;100.0;101320;;;;
2023/01/04 07:03:10;;;;;;;1.0;1.0;;;;;;;10.2;100.0;101320;;;;
2023/01/04 07:04:00;;;;;;;1.0;1.0;;;;;;;10.3;100.0;101320;;;;
2023/01/04 07:05:00;;;;;;;1.0;1.0;;;;;;;10.3;100.0;101320;;;;
2023/01/04 07:06:02;;;;;;;1.0;1.0;;;;;;;10.3;100.0;101310;;;;
2023/01/04 07:07:01;;;;;;;1.0;1.0;;;;;;;10.3;100.0;101310;;;;
2023/01/04 07:08:08;;;;;;;1.0;1.0;;;;;;;10.2;100.0;101300;;;;
2023/01/04 07:09:00;;;;;;;1.0;1.0;;;;;;;10.2;100.0;101300;;;;
2023/01/04 07:10:09;;;;;;;1.0;1.0;;;;;;;10.2;100.0;101310;;;;
2023/01/04 07:11:00;;;;;;;1.0;1.0;;;;;;;10.2;100.0;101310;;;;
2023/01/04 07:12:00;;;;;;;1.0;1.0;;;;;;;10.2;100.0;101300;;;;
2023/01/04 07:13:00;;;;;;;1.0;1.0;;;;;;;10.2;100.0;101300;;;;
2023/01/04 07:14:00;;;;;;;1.0;1.0;;;;;;;10.3;100.0;101310;;;;
2023/01/04 07:15:00;;;;;;;1.0;1.0;;;;;;;10.3;100.0;101310;;;;